createdAt,value
2022-08-20T00:04:05.944Z,8.50
2022-08-20T00:05:18.347Z,8.75
2022-08-20T00:06:25.519Z,10.06
2022-08-20T00:07:30.498Z,6.62
2022-08-20T00:08:34.658Z,7.19
2022-08-20T00:09:40.290Z,8.88
2022-08-20T00:10:55.586Z,7.75
2022-08-20T00:12:08.576Z,7.81
2022-08-20T00:13:26.602Z,9.94
2022-08-20T00:17:35.355Z,9.25
2022-08-20T00:20:10.633Z,8.31
2022-08-20T00:21:19.029Z,8.50
2022-08-20T00:22:14.702Z,8.81
2022-08-20T00:37:17.479Z,7.06
2022-08-20T00:38:28.616Z,6.81
2022-08-20T00:39:40.347Z,7.37
2022-08-20T00:41:00.358Z,6.25
2022-08-20T00:42:05.178Z,7.50
2022-08-20T00:43:25.522Z,7.37
2022-08-20T00:44:31.507Z,9.44
2022-08-20T00:45:36.597Z,8.25
2022-08-20T00:46:45.181Z,8.06
2022-08-20T00:47:51.513Z,7.44
2022-08-20T00:48:57.352Z,8.50
2022-08-20T00:50:01.547Z,7.12
2022-08-20T00:51:11.140Z,8.38
2022-08-20T00:52:18.147Z,8.31
2022-08-20T00:53:31.566Z,8.00
2022-08-20T00:54:35.855Z,7.31
2022-08-20T00:55:41.985Z,6.00
2022-08-20T00:56:48.635Z,7.12
2022-08-20T00:58:01.443Z,6.81
2022-08-20T00:59:03.418Z,7.19
2022-08-20T01:00:12.180Z,8.00
2022-08-20T01:01:20.690Z,7.00
2022-08-20T01:02:27.358Z,7.69
2022-08-20T01:03:31.763Z,8.06
2022-08-20T01:04:37.982Z,7.62
2022-08-20T01:05:44.992Z,7.75
2022-08-20T01:06:49.640Z,8.38
2022-08-20T01:07:55.577Z,7.00
2022-08-20T01:09:01.260Z,5.81
2022-08-20T01:10:20.490Z,7.25
2022-08-20T01:11:25.869Z,6.50
2022-08-20T01:12:30.878Z,6.75
2022-08-20T01:13:37.681Z,6.50
2022-08-20T01:14:45.458Z,8.13
2022-08-20T01:15:52.036Z,7.44
2022-08-20T01:16:59.092Z,5.56
2022-08-20T01:18:03.908Z,5.81
2022-08-20T01:19:29.222Z,7.12
2022-08-20T01:20:27.433Z,6.62
2022-08-20T01:21:31.840Z,6.62
2022-08-20T01:22:42.784Z,8.19
2022-08-20T01:24:13.851Z,7.87
2022-08-20T01:25:32.803Z,6.87
2022-08-20T01:26:43.268Z,7.50
2022-08-20T01:34:46.557Z,6.37
2022-08-20T01:35:51.597Z,7.62
2022-08-20T01:36:58.278Z,8.00
2022-08-20T01:38:02.299Z,7.19
2022-08-20T01:39:09.189Z,7.37
2022-08-20T01:40:17.709Z,8.19
2022-08-20T01:41:30.905Z,7.56
2022-08-20T01:42:52.727Z,7.19
2022-08-20T01:43:49.234Z,8.88
2022-08-20T01:44:55.035Z,7.00
2022-08-20T01:45:59.178Z,8.38
2022-08-20T01:47:15.905Z,12.00
2022-08-20T01:48:20.324Z,12.00
2022-08-20T01:49:32.926Z,10.81
2022-08-20T01:50:41.438Z,7.31
2022-08-20T01:51:47.300Z,9.44
2022-08-20T01:53:10.807Z,7.37
2022-08-20T01:54:14.896Z,4.50
2022-08-20T01:55:19.094Z,9.63
2022-08-20T01:56:29.947Z,8.19
2022-08-20T01:57:34.953Z,7.50
2022-08-20T01:58:43.336Z,8.38
2022-08-20T01:59:52.580Z,7.69
2022-08-20T02:01:00.251Z,7.19
2022-08-20T02:02:05.538Z,6.19
2022-08-20T02:03:11.200Z,7.00
2022-08-20T02:04:16.194Z,8.94
2022-08-20T02:05:20.804Z,5.75
2022-08-20T02:06:27.230Z,8.13
2022-08-20T02:07:31.319Z,9.31
2022-08-20T02:08:35.301Z,7.50
2022-08-20T02:09:39.835Z,8.13
2022-08-20T02:10:43.986Z,5.06
2022-08-20T02:11:48.193Z,6.69
2022-08-20T02:12:53.100Z,7.94
2022-08-20T02:13:57.888Z,9.50
2022-08-20T02:15:02.592Z,8.06
2022-08-20T02:16:08.587Z,6.81
2022-08-20T02:17:14.588Z,8.00
2022-08-20T02:18:18.830Z,8.94
2022-08-20T02:19:25.825Z,8.00
2022-08-20T02:20:31.341Z,8.63
2022-08-20T02:21:40.789Z,10.13
2022-08-20T02:22:53.768Z,13.19
2022-08-20T02:24:07.427Z,10.56
2022-08-20T02:25:09.349Z,12.50
2022-08-20T02:26:14.157Z,13.88
2022-08-20T02:27:18.286Z,13.75
2022-08-20T02:28:22.343Z,12.94
2022-08-20T02:29:26.487Z,13.25
2022-08-20T02:30:34.594Z,11.94
2022-08-20T02:32:23.564Z,10.06
2022-08-20T02:32:46.636Z,11.31
2022-08-20T02:34:22.459Z,11.00
2022-08-20T02:34:56.894Z,10.19
2022-08-20T02:36:00.869Z,11.44
2022-08-20T02:37:07.164Z,12.00
2022-08-20T02:38:11.798Z,13.81
2022-08-20T02:39:16.330Z,10.13
2022-08-20T02:40:30.180Z,11.25
2022-08-20T02:41:29.094Z,15.44
2022-08-20T02:42:36.765Z,16.06
2022-08-20T02:43:40.935Z,12.81
2022-08-20T02:44:48.301Z,13.53
2022-08-20T02:45:52.340Z,13.00
2022-08-20T02:46:57.134Z,15.38
2022-08-20T02:48:01.191Z,13.94
2022-08-20T02:49:08.418Z,13.13
2022-08-20T02:50:16.083Z,14.94
2022-08-20T02:51:20.088Z,12.75
2022-08-20T02:52:26.217Z,10.25
2022-08-20T02:53:32.976Z,10.94
2022-08-20T02:54:37.128Z,11.50
2022-08-20T02:55:41.283Z,10.19
2022-08-20T02:56:47.639Z,9.06
2022-08-20T02:57:54.465Z,9.63
2022-08-20T02:59:00.027Z,9.44
2022-08-20T03:00:06.451Z,10.25
2022-08-20T03:01:13.624Z,9.81
2022-08-20T03:02:17.849Z,10.38
2022-08-20T03:03:21.952Z,8.63
2022-08-20T03:04:26.153Z,8.88
2022-08-20T03:05:30.339Z,10.31
2022-08-20T03:06:34.957Z,9.19
2022-08-20T03:07:44.833Z,7.44
2022-08-20T03:08:50.923Z,10.69
2022-08-20T03:09:54.934Z,10.50
2022-08-20T03:10:59.885Z,7.87
2022-08-20T03:12:05.218Z,10.00
2022-08-20T03:13:09.524Z,13.00
2022-08-20T03:14:13.874Z,17.44
2022-08-20T03:15:18.040Z,14.38
2022-08-20T03:16:23.924Z,18.25
2022-08-20T03:17:27.979Z,10.56
2022-08-20T03:18:35.334Z,11.63
2022-08-20T03:19:39.469Z,9.44
2022-08-20T03:20:46.097Z,10.06
2022-08-20T03:21:50.629Z,10.38
2022-08-20T03:22:56.356Z,9.69
2022-08-20T03:24:01.713Z,10.31
2022-08-20T03:25:07.134Z,9.69
2022-08-20T03:26:13.462Z,10.88
2022-08-20T03:27:17.454Z,9.25
2022-08-20T03:28:23.253Z,9.19
2022-08-20T03:29:27.230Z,10.06
2022-08-20T03:30:33.138Z,10.75
2022-08-20T03:31:37.678Z,9.94
2022-08-20T03:32:42.723Z,10.00
2022-08-20T03:33:52.736Z,11.25
2022-08-20T03:34:54.333Z,3.44
2022-08-20T03:35:58.679Z,10.38
2022-08-20T03:37:03.254Z,10.38
2022-08-20T03:38:09.623Z,10.69
2022-08-20T03:39:14.142Z,9.69
2022-08-20T03:40:22.921Z,9.63
2022-08-20T03:41:27.434Z,10.50
2022-08-20T03:42:31.551Z,10.94
2022-08-20T03:43:36.987Z,10.88
2022-08-20T03:44:43.256Z,11.06
2022-08-20T03:45:47.368Z,11.00
2022-08-20T03:46:56.073Z,10.31
2022-08-20T03:47:59.882Z,10.31
2022-08-20T03:49:08.348Z,10.50
2022-08-20T03:50:22.781Z,11.00
2022-08-20T03:51:19.924Z,9.75
2022-08-20T03:52:26.443Z,11.12
2022-08-20T03:53:32.045Z,10.06
2022-08-20T03:54:37.647Z,10.19
2022-08-20T03:55:43.376Z,11.19
2022-08-20T03:56:50.695Z,10.50
2022-08-20T03:59:07.563Z,10.00
2022-08-20T04:00:13.281Z,10.81
2022-08-20T04:01:44.613Z,10.31
2022-08-20T04:02:23.778Z,11.25
2022-08-20T04:03:27.823Z,9.31
2022-08-20T04:04:31.967Z,11.25
2022-08-20T04:05:38.468Z,13.06
2022-08-20T04:06:46.132Z,11.63
2022-08-20T04:08:05.030Z,12.19
2022-08-20T04:09:12.343Z,12.63
2022-08-20T04:10:18.540Z,11.19
2022-08-20T04:11:22.704Z,11.94
2022-08-20T04:12:27.237Z,11.50
2022-08-20T04:13:33.165Z,10.31
2022-08-20T04:14:38.641Z,10.94
2022-08-20T04:15:47.176Z,11.00
2022-08-20T04:16:53.019Z,9.69
2022-08-20T04:17:57.334Z,11.50
2022-08-20T04:19:02.802Z,10.25
2022-08-20T04:20:10.345Z,9.56
2022-08-20T04:21:15.363Z,10.63
2022-08-20T04:22:19.739Z,10.50
2022-08-20T04:23:24.031Z,7.56
2022-08-20T04:24:32.318Z,11.38
2022-08-20T04:25:37.471Z,10.56
2022-08-20T04:26:44.679Z,10.63
2022-08-20T04:27:49.404Z,8.94
2022-08-20T04:29:04.558Z,10.31
2022-08-20T04:30:01.425Z,9.88
2022-08-20T04:31:05.498Z,9.56
2022-08-20T04:32:11.273Z,11.06
2022-08-20T04:33:15.324Z,10.38
2022-08-20T04:34:22.346Z,10.63
2022-08-20T04:35:28.633Z,8.63
2022-08-20T04:36:33.020Z,9.44
2022-08-20T04:37:37.184Z,8.44
2022-08-20T04:38:49.979Z,12.44
2022-08-20T04:39:49.570Z,11.25
2022-08-20T04:41:06.999Z,12.81
2022-08-20T04:42:01.548Z,11.81
2022-08-20T04:43:07.735Z,10.56
2022-08-20T04:44:12.314Z,11.56
2022-08-20T04:45:16.272Z,9.31
2022-08-20T04:46:24.201Z,7.44
2022-08-20T04:47:34.627Z,10.06
2022-08-20T04:48:38.303Z,9.94
2022-08-20T04:49:43.959Z,15.19
2022-08-20T04:50:50.201Z,9.25
2022-08-20T04:51:54.942Z,10.31
2022-08-20T04:52:59.005Z,8.44
2022-08-20T04:54:03.330Z,10.50
2022-08-20T04:55:08.041Z,10.69
2022-08-20T04:56:12.466Z,7.12
2022-08-20T04:57:19.087Z,8.38
2022-08-20T04:58:26.151Z,8.94
2022-08-20T04:59:33.726Z,9.75
2022-08-20T05:00:38.151Z,9.56
2022-08-20T05:02:15.463Z,9.88
2022-08-20T05:02:54.448Z,9.06
2022-08-20T05:03:59.348Z,10.88
2022-08-20T05:05:03.378Z,7.56
2022-08-20T05:06:10.369Z,9.75
2022-08-20T05:07:16.374Z,9.19
2022-08-20T05:08:21.995Z,9.75
2022-08-20T05:09:26.201Z,9.56
2022-08-20T05:10:31.242Z,9.75
2022-08-20T05:11:36.904Z,8.81
2022-08-20T05:12:42.934Z,10.38
2022-08-20T05:13:48.947Z,17.06
2022-08-20T05:14:56.773Z,17.75
2022-08-20T05:16:02.596Z,15.25
2022-08-20T05:17:06.786Z,5.44
2022-08-20T05:18:10.832Z,4.56
2022-08-20T05:19:16.501Z,5.75
2022-08-20T05:20:21.216Z,7.87
2022-08-20T05:21:29.670Z,8.13
2022-08-20T05:22:35.886Z,6.50
2022-08-20T05:23:48.581Z,7.44
2022-08-20T05:24:52.680Z,10.69
2022-08-20T05:25:56.913Z,7.44
2022-08-20T05:27:03.380Z,7.87
2022-08-20T05:28:10.469Z,8.50
2022-08-20T05:29:22.418Z,8.25
2022-08-20T05:30:28.757Z,6.87
2022-08-20T05:31:35.448Z,7.75
2022-08-20T05:32:44.495Z,8.81
2022-08-20T05:33:45.681Z,6.50
2022-08-20T05:34:51.287Z,7.81
2022-08-20T05:36:46.882Z,6.81
2022-08-20T05:37:06.271Z,6.44
2022-08-20T05:38:15.396Z,7.06
2022-08-20T05:39:22.129Z,7.62
2022-08-20T05:40:28.539Z,8.13
2022-08-20T05:41:32.564Z,8.69
2022-08-20T05:43:46.535Z,7.75
2022-08-20T05:44:11.800Z,6.87
2022-08-20T05:45:16.859Z,7.69
2022-08-20T05:46:21.671Z,7.06
2022-08-20T05:47:27.529Z,5.25
2022-08-20T05:48:31.513Z,6.12
2022-08-20T05:49:35.647Z,4.94
2022-08-20T05:50:41.908Z,7.25
2022-08-20T05:51:46.109Z,8.06
2022-08-20T05:52:51.478Z,7.56
2022-08-20T05:53:59.195Z,4.50
2022-08-20T05:55:01.289Z,5.25
2022-08-20T05:56:05.726Z,8.81
2022-08-20T05:57:19.372Z,8.13
2022-08-20T05:58:26.002Z,6.44
2022-08-20T05:59:29.986Z,3.25
2022-08-20T06:00:35.846Z,6.56
2022-08-20T06:01:40.703Z,6.19
2022-08-20T06:02:44.872Z,3.94
2022-08-20T06:03:49.181Z,7.00
2022-08-20T06:04:56.118Z,6.19
2022-08-20T06:05:59.739Z,3.56
2022-08-20T06:07:06.442Z,7.12
2022-08-20T06:08:12.532Z,5.87
2022-08-20T06:09:31.172Z,5.06
2022-08-20T06:10:26.214Z,5.25
2022-08-20T06:11:37.409Z,4.81
2022-08-20T06:14:12.486Z,2.87
2022-08-20T06:15:16.513Z,5.44
2022-08-20T06:16:22.232Z,5.50
2022-08-20T06:17:34.849Z,5.12
2022-08-20T06:18:42.917Z,5.00
2022-08-20T06:19:47.393Z,7.06
2022-08-20T06:20:53.329Z,5.62
2022-08-20T06:22:17.987Z,6.56
2022-08-20T06:23:06.449Z,6.06
2022-08-20T06:24:12.138Z,7.81
2022-08-20T06:25:18.241Z,4.06
2022-08-20T06:26:30.856Z,7.19
2022-08-20T06:27:46.777Z,5.94
2022-08-20T06:28:50.713Z,6.44
2022-08-20T06:29:56.541Z,5.37
2022-08-20T06:31:03.041Z,6.25
2022-08-20T06:32:07.295Z,3.44
2022-08-20T06:33:12.794Z,10.06
2022-08-20T06:34:18.338Z,11.25
2022-08-20T06:35:24.179Z,9.19
2022-08-20T06:36:49.430Z,9.19
2022-08-20T06:37:42.348Z,65.56
2022-08-20T06:38:49.437Z,76.06
2022-08-20T06:39:56.156Z,68.12
2022-08-20T06:41:01.550Z,53.38
2022-08-20T06:42:05.732Z,20.88
2022-08-20T06:43:11.798Z,55.31
2022-08-20T06:44:19.601Z,28.06
2022-08-20T06:45:28.116Z,71.37
2022-08-20T06:46:32.437Z,75.53
2022-08-20T06:47:39.419Z,75.19
2022-08-20T06:48:43.506Z,76.25
2022-08-20T06:49:49.595Z,76.67
2022-08-20T06:50:54.148Z,76.93
2022-08-20T06:51:59.840Z,71.53
2022-08-20T06:53:06.456Z,64.13
2022-08-20T06:54:10.794Z,77.47
2022-08-20T06:55:17.297Z,81.87
2022-08-20T06:56:22.337Z,67.06
2022-08-20T06:57:26.383Z,72.00
2022-08-20T06:58:38.914Z,64.25
2022-08-20T06:59:39.274Z,23.31
2022-08-20T07:00:46.481Z,33.50
2022-08-20T07:01:50.533Z,72.44
2022-08-20T07:02:54.846Z,74.19
2022-08-20T07:03:58.910Z,60.31
2022-08-20T07:05:05.843Z,78.44
2022-08-20T07:06:10.656Z,69.62
2022-08-20T07:07:20.858Z,87.12
2022-08-20T07:08:26.343Z,91.00
2022-08-20T07:09:31.812Z,84.67
2022-08-20T07:10:37.331Z,79.31
2022-08-20T07:11:41.636Z,72.40
2022-08-20T07:12:46.083Z,76.06
2022-08-20T07:13:51.348Z,82.07
2022-08-20T07:14:55.538Z,82.40
2022-08-20T07:15:59.612Z,81.60
2022-08-20T07:17:05.015Z,74.53
2022-08-20T07:18:12.827Z,84.87
2022-08-20T07:19:17.073Z,74.47
2022-08-20T07:20:25.330Z,77.60
2022-08-20T07:21:29.336Z,78.31
2022-08-20T07:22:35.049Z,86.87
2022-08-20T07:23:41.029Z,101.47
2022-08-20T07:24:48.998Z,87.25
2022-08-20T07:25:50.721Z,87.69
2022-08-20T07:26:56.924Z,99.94
2022-08-20T07:28:05.334Z,92.00
2022-08-20T07:29:09.399Z,94.37
2022-08-20T07:30:16.594Z,100.06
2022-08-20T07:31:22.265Z,96.47
2022-08-20T07:32:28.956Z,100.87
2022-08-20T07:33:33.865Z,106.33
2022-08-20T07:34:38.306Z,114.94
2022-08-20T07:35:47.182Z,108.40
2022-08-20T07:36:51.313Z,106.50
2022-08-20T07:37:55.380Z,109.25
2022-08-20T07:39:00.862Z,87.50
2022-08-20T07:40:10.810Z,99.47
2022-08-20T07:42:44.445Z,100.87
2022-08-20T07:43:14.072Z,92.33
2022-08-20T07:44:04.779Z,97.40
2022-08-20T07:45:02.742Z,92.44
2022-08-20T07:46:10.867Z,70.13
2022-08-20T07:47:16.368Z,64.60
2022-08-20T07:48:31.127Z,72.87
2022-08-20T07:49:28.516Z,64.20
2022-08-20T07:50:33.646Z,71.62
2022-08-20T07:51:37.613Z,77.00
2022-08-20T07:52:41.654Z,80.07
2022-08-20T07:53:47.771Z,82.06
2022-08-20T07:54:53.353Z,99.33
2022-08-20T07:55:59.049Z,105.31
2022-08-20T07:57:03.896Z,88.27
2022-08-20T07:58:10.850Z,98.37
2022-08-20T07:59:14.826Z,93.00
2022-08-20T08:00:23.191Z,90.80
2022-08-20T08:01:30.547Z,95.13
2022-08-20T08:02:36.842Z,86.00
2022-08-20T08:03:50.142Z,97.00
2022-08-20T08:04:48.056Z,113.80
2022-08-20T08:05:52.181Z,107.47
2022-08-20T08:06:56.805Z,99.07
2022-08-20T08:08:02.835Z,90.67
2022-08-20T08:09:10.240Z,109.87
2022-08-20T08:10:18.822Z,112.94
2022-08-20T08:11:24.174Z,109.69
2022-08-20T08:12:32.775Z,99.13
2022-08-20T08:13:39.793Z,105.37
2022-08-20T08:14:46.342Z,89.37
2022-08-20T08:15:51.469Z,82.53
2022-08-20T08:16:58.718Z,89.62
2022-08-20T08:18:11.990Z,99.07
2022-08-20T08:19:18.159Z,111.60
2022-08-20T08:20:25.294Z,112.00
2022-08-20T08:21:30.491Z,110.19
2022-08-20T08:22:34.707Z,110.81
2022-08-20T08:23:40.262Z,98.13
2022-08-20T08:24:56.860Z,97.50
2022-08-20T08:25:52.425Z,104.56
2022-08-20T08:26:57.262Z,100.75
2022-08-20T08:28:01.322Z,106.56
2022-08-20T08:29:05.434Z,98.19
2022-08-20T08:30:11.606Z,100.00
2022-08-20T08:31:16.231Z,113.75
2022-08-20T08:32:20.256Z,106.00
2022-08-20T08:33:30.105Z,112.88
2022-08-20T08:34:36.067Z,106.94
2022-08-20T08:35:42.161Z,108.44
2022-08-20T08:36:46.869Z,117.44
2022-08-20T08:37:58.077Z,105.50
2022-08-20T08:38:56.840Z,102.87
2022-08-20T08:40:01.177Z,103.50
2022-08-20T08:41:19.420Z,98.81
2022-08-20T08:42:26.407Z,102.00
2022-08-20T08:43:32.042Z,99.75
2022-08-20T08:44:39.299Z,103.31
2022-08-20T08:45:46.276Z,91.47
2022-08-20T08:46:54.872Z,94.19
2022-08-20T08:47:59.037Z,71.56
2022-08-20T08:49:06.691Z,92.37
2022-08-20T08:50:13.931Z,100.56
2022-08-20T08:51:24.398Z,94.62
2022-08-20T08:52:31.811Z,109.00
2022-08-20T08:53:39.262Z,97.44
2022-08-20T08:54:46.286Z,116.44
2022-08-20T08:55:50.404Z,95.12
2022-08-20T08:56:55.625Z,118.56
2022-08-20T08:58:06.416Z,108.37
2022-08-20T08:59:08.777Z,96.63
2022-08-20T09:00:16.652Z,120.19
2022-08-20T09:01:55.095Z,105.94
2022-08-20T09:02:31.206Z,103.19
2022-08-20T09:03:42.044Z,118.06
2022-08-20T09:04:46.340Z,109.73
2022-08-20T09:05:59.442Z,104.87
2022-08-20T09:07:06.300Z,114.94
2022-08-20T09:08:16.825Z,116.37
2022-08-20T09:09:21.837Z,110.56
2022-08-20T09:10:27.773Z,108.25
2022-08-20T09:11:35.279Z,103.81
2022-08-20T09:12:40.862Z,103.80
2022-08-20T09:13:45.419Z,95.62
2022-08-20T09:14:52.526Z,93.56
2022-08-20T09:15:58.009Z,96.94
2022-08-20T09:17:03.686Z,91.73
2022-08-20T09:18:11.960Z,101.06
2022-08-20T09:19:16.028Z,99.00
2022-08-20T09:20:27.030Z,96.33
2022-08-20T09:21:27.366Z,95.19
2022-08-20T09:22:31.676Z,99.25
2022-08-20T09:23:35.800Z,72.40
2022-08-20T09:24:40.359Z,103.75
2022-08-20T09:25:44.473Z,86.19
2022-08-20T09:26:50.700Z,56.13
2022-08-20T09:27:54.446Z,73.62
2022-08-20T09:28:58.849Z,55.33
2022-08-20T09:30:04.266Z,57.31
2022-08-20T09:31:08.412Z,50.12
2022-08-20T09:32:22.206Z,70.81
2022-08-20T09:33:26.348Z,74.73
2022-08-20T09:34:30.432Z,91.94
2022-08-20T09:35:34.544Z,87.07
2022-08-20T09:36:38.886Z,77.27
2022-08-20T09:37:43.014Z,97.00
2022-08-20T09:38:49.220Z,107.94
2022-08-20T09:39:52.982Z,65.53
2022-08-20T09:40:57.234Z,90.93
2022-08-20T09:42:10.143Z,89.37
2022-08-20T09:43:14.361Z,101.31
2022-08-20T09:44:18.531Z,94.06
2022-08-20T09:45:22.655Z,101.87
2022-08-20T09:46:30.030Z,99.13
2022-08-20T09:47:34.026Z,99.37
2022-08-20T09:48:38.003Z,86.94
2022-08-20T09:49:42.155Z,98.81
2022-08-20T09:50:50.490Z,99.00
2022-08-20T09:51:57.560Z,100.31
2022-08-20T09:53:03.581Z,99.44
2022-08-20T09:54:07.823Z,105.63
2022-08-20T09:55:23.807Z,65.69
2022-08-20T09:56:32.352Z,94.19
2022-08-20T09:57:36.382Z,96.75
2022-08-20T09:58:46.563Z,96.81
2022-08-20T09:59:55.486Z,96.56
2022-08-20T10:01:03.942Z,98.19
2022-08-20T10:02:09.671Z,104.69
2022-08-20T10:03:15.557Z,96.06
2022-08-20T10:04:19.761Z,96.37
2022-08-20T10:05:27.094Z,101.44
2022-08-20T10:06:37.734Z,87.94
2022-08-20T10:07:39.279Z,81.63
2022-08-20T10:08:45.290Z,43.67
2022-08-20T10:09:49.367Z,33.25
2022-08-20T10:10:53.550Z,28.38
2022-08-20T10:11:59.048Z,34.93
2022-08-20T10:13:04.890Z,34.40
2022-08-20T10:14:10.510Z,25.88
2022-08-20T10:15:15.916Z,24.00
2022-08-20T10:16:21.802Z,32.31
2022-08-20T10:17:25.923Z,46.56
2022-08-20T10:18:31.619Z,43.38
2022-08-20T10:19:38.928Z,38.13
2022-08-20T10:20:45.721Z,46.19
2022-08-20T10:21:52.921Z,65.33
2022-08-20T10:22:59.960Z,91.94
2022-08-20T10:24:05.914Z,87.56
2022-08-20T10:25:13.526Z,71.87
2022-08-20T10:26:17.772Z,73.33
2022-08-20T10:27:22.030Z,90.81
2022-08-20T10:28:26.095Z,82.47
2022-08-20T10:29:31.046Z,63.25
2022-08-20T10:30:36.103Z,70.94
2022-08-20T10:31:41.839Z,106.00
2022-08-20T10:32:53.089Z,90.31
2022-08-20T10:33:58.380Z,106.50
2022-08-20T10:35:03.883Z,89.33
2022-08-20T10:36:21.022Z,101.47
2022-08-20T10:37:27.027Z,86.13
2022-08-20T10:38:31.074Z,104.94
2022-08-20T10:39:38.008Z,104.12
2022-08-20T10:40:52.363Z,97.37
2022-08-20T10:41:53.684Z,100.81
2022-08-20T10:42:59.030Z,93.06
2022-08-20T10:44:09.648Z,102.94
2022-08-20T10:45:16.334Z,111.50
2022-08-20T10:47:39.868Z,89.87
2022-08-20T10:48:46.961Z,98.56
2022-08-20T10:49:53.335Z,94.94
2022-08-20T10:50:57.835Z,108.75
2022-08-20T10:52:01.925Z,111.62
2022-08-20T10:53:07.724Z,98.69
2022-08-20T10:54:15.765Z,114.94
2022-08-20T10:55:21.489Z,121.87
2022-08-20T10:56:29.575Z,91.75
2022-08-20T10:57:33.865Z,112.31
2022-08-20T10:59:04.848Z,107.31
2022-08-20T11:01:32.775Z,123.75
2022-08-20T11:01:55.176Z,106.50
2022-08-20T11:02:33.121Z,121.81
2022-08-20T11:03:37.265Z,114.81
2022-08-20T11:04:41.389Z,114.00
2022-08-20T11:05:45.754Z,96.47
2022-08-20T11:06:50.133Z,71.20
2022-08-20T11:07:56.890Z,106.87
2022-08-20T11:08:59.900Z,124.25
2022-08-20T11:10:05.469Z,97.19
2022-08-20T11:11:09.563Z,99.69
2022-08-20T11:12:16.824Z,84.31
2022-08-20T11:13:21.398Z,79.69
2022-08-20T11:14:26.976Z,86.81
2022-08-20T11:15:31.365Z,67.62
2022-08-20T11:16:36.341Z,81.00
2022-08-20T11:17:42.691Z,76.87
2022-08-20T11:18:47.942Z,73.31
2022-08-20T11:19:52.140Z,81.81
2022-08-20T11:20:57.610Z,70.69
2022-08-20T11:22:02.982Z,80.12
2022-08-20T11:23:07.003Z,91.06
2022-08-20T11:24:10.995Z,98.75
2022-08-20T11:25:16.730Z,103.56
2022-08-20T11:26:25.936Z,107.44
2022-08-20T11:27:32.915Z,98.62
2022-08-20T11:28:36.892Z,96.73
2022-08-20T11:29:40.937Z,87.44
2022-08-20T11:30:48.494Z,86.47
2022-08-20T11:31:53.816Z,100.12
2022-08-20T11:32:59.413Z,93.12
2022-08-20T11:34:03.444Z,78.56
2022-08-20T11:35:38.378Z,101.06
2022-08-20T11:36:14.714Z,101.75
2022-08-20T11:37:22.176Z,96.37
2022-08-20T11:38:26.172Z,93.40
2022-08-20T11:39:30.277Z,81.47
2022-08-20T11:40:35.154Z,75.33
2022-08-20T11:41:39.385Z,83.75
2022-08-20T11:43:10.978Z,93.19
2022-08-20T11:44:10.433Z,89.53
2022-08-20T11:44:59.019Z,81.25
2022-08-20T11:46:03.143Z,85.20
2022-08-20T11:47:08.665Z,101.13
2022-08-20T11:48:12.791Z,97.07
2022-08-20T11:49:16.861Z,98.80
2022-08-20T11:50:22.576Z,93.80
2022-08-20T11:51:26.616Z,94.80
2022-08-20T11:52:30.728Z,78.20
2022-08-20T11:53:36.291Z,90.07
2022-08-20T11:54:41.979Z,92.94
2022-08-20T11:55:47.084Z,77.06
2022-08-20T11:56:54.365Z,84.19
2022-08-20T11:58:00.154Z,85.31
2022-08-20T11:59:29.251Z,106.25
2022-08-20T12:00:21.979Z,119.75
2022-08-20T12:01:29.180Z,118.50
2022-08-20T12:02:33.273Z,116.88
2022-08-20T12:03:39.204Z,119.87
2022-08-20T12:04:43.248Z,117.87
2022-08-20T12:05:47.881Z,122.19
2022-08-20T12:06:51.974Z,112.88
2022-08-20T12:07:56.086Z,107.12
2022-08-20T12:09:00.707Z,141.00
2022-08-20T12:10:06.680Z,109.06
2022-08-20T12:11:10.730Z,102.00
2022-08-20T12:12:15.833Z,113.31
2022-08-20T12:13:19.917Z,115.06
2022-08-20T12:14:25.606Z,120.50
2022-08-20T12:15:29.677Z,117.19
2022-08-20T12:16:33.942Z,95.25
2022-08-20T12:17:38.467Z,124.62
2022-08-20T12:18:44.248Z,126.25
2022-08-20T12:19:48.801Z,98.93
2022-08-20T12:20:53.342Z,84.31
2022-08-20T12:21:57.322Z,85.75
2022-08-20T12:23:01.459Z,125.20
2022-08-20T12:24:05.742Z,102.75
2022-08-20T12:25:11.371Z,103.33
2022-08-20T12:26:15.925Z,110.50
2022-08-20T12:27:25.136Z,131.94
2022-08-20T12:28:34.565Z,114.94
2022-08-20T12:29:41.804Z,139.59
2022-08-20T12:30:49.505Z,122.37
2022-08-20T12:31:55.037Z,106.06
2022-08-20T12:33:01.048Z,115.44
2022-08-20T12:34:55.943Z,113.56
2022-08-20T12:35:19.667Z,106.07
2022-08-20T12:36:25.815Z,84.81
2022-08-20T12:37:32.623Z,94.20
2022-08-20T12:38:44.342Z,100.12
2022-08-20T12:39:51.367Z,93.67
2022-08-20T12:40:55.617Z,92.31
2022-08-20T12:42:03.467Z,76.44
2022-08-20T12:43:08.046Z,90.33
2022-08-20T12:44:13.247Z,88.37
2022-08-20T12:45:17.834Z,99.37
2022-08-20T12:46:23.607Z,89.31
2022-08-20T12:47:32.958Z,83.40
2022-08-20T12:48:37.131Z,89.53
2022-08-20T12:49:44.151Z,97.12
2022-08-20T12:50:49.774Z,87.31
2022-08-20T12:51:53.764Z,87.31
2022-08-20T12:53:01.212Z,91.13
2022-08-20T12:54:12.501Z,83.53
2022-08-20T12:55:22.204Z,84.73
2022-08-20T12:56:27.765Z,96.31
2022-08-20T12:57:37.453Z,94.94
2022-08-20T12:58:41.445Z,90.40
2022-08-20T12:59:47.075Z,100.80
2022-08-20T13:00:51.898Z,106.94
2022-08-20T13:01:56.423Z,103.75
2022-08-20T13:03:02.541Z,104.87
2022-08-20T13:04:06.672Z,85.93
2022-08-20T13:05:14.506Z,81.27
2022-08-20T13:06:19.648Z,93.67
2022-08-20T13:07:25.346Z,88.73
2022-08-20T13:08:31.224Z,89.62
2022-08-20T13:09:35.280Z,94.27
2022-08-20T13:10:43.971Z,90.87
2022-08-20T13:11:48.014Z,112.25
2022-08-20T13:12:52.359Z,107.00
2022-08-20T13:13:56.398Z,104.69
2022-08-20T13:15:00.436Z,91.31
2022-08-20T13:16:07.280Z,84.13
2022-08-20T13:17:11.595Z,83.62
2022-08-20T13:18:15.681Z,74.75
2022-08-20T13:19:19.653Z,49.81
2022-08-20T13:20:26.291Z,84.56
2022-08-20T13:21:32.083Z,88.25
2022-08-20T13:22:37.780Z,77.81
2022-08-20T13:23:41.838Z,80.62
2022-08-20T13:24:48.668Z,68.44
2022-08-20T13:25:54.415Z,74.56
2022-08-20T13:27:10.460Z,73.07
2022-08-20T13:28:14.463Z,79.87
2022-08-20T13:29:29.019Z,77.80
2022-08-20T13:30:36.223Z,63.50
2022-08-20T13:32:11.135Z,71.00
2022-08-20T13:33:00.101Z,69.81
2022-08-20T13:34:04.262Z,64.94
2022-08-20T13:35:14.639Z,64.19
2022-08-20T13:36:21.060Z,60.19
2022-08-20T13:37:43.806Z,44.67
2022-08-20T13:39:10.404Z,54.06
2022-08-20T13:40:07.407Z,34.13
2022-08-20T13:41:28.606Z,20.07
2022-08-20T13:42:32.450Z,22.94
2022-08-20T13:43:36.492Z,12.06
2022-08-20T13:44:42.085Z,15.50
2022-08-20T13:45:50.586Z,7.75
2022-08-20T13:46:57.492Z,8.81
2022-08-20T13:48:01.465Z,7.62
2022-08-20T13:49:05.517Z,11.67
2022-08-20T13:50:15.840Z,7.31
2022-08-20T13:51:21.632Z,15.19
2022-08-20T13:52:27.811Z,20.06
2022-08-20T13:53:31.793Z,19.75
2022-08-20T13:54:40.654Z,27.62
2022-08-20T13:55:47.246Z,10.81
2022-08-20T13:56:51.574Z,7.69
2022-08-20T13:57:56.814Z,10.63
2022-08-20T13:59:00.878Z,15.25
2022-08-20T14:00:07.737Z,17.94
2022-08-20T14:01:12.122Z,17.56
2022-08-20T14:02:17.782Z,16.06
2022-08-20T14:03:25.441Z,8.31
2022-08-20T14:04:29.061Z,7.37
2022-08-20T14:05:33.784Z,18.37
2022-08-20T14:06:39.135Z,18.81
2022-08-20T14:07:47.875Z,16.56
2022-08-20T14:08:54.598Z,16.06
2022-08-20T14:10:01.614Z,14.44
2022-08-20T14:11:05.728Z,8.94
2022-08-20T14:12:10.728Z,17.81
2022-08-20T14:13:17.303Z,15.25
2022-08-20T14:14:22.910Z,15.31
2022-08-20T14:15:27.226Z,15.31
2022-08-20T14:16:35.790Z,11.25
2022-08-20T14:17:39.951Z,10.06
2022-08-20T14:18:44.067Z,7.19
2022-08-20T14:20:00.716Z,11.38
2022-08-20T14:20:58.168Z,17.19
2022-08-20T14:22:02.321Z,19.00
2022-08-20T14:23:07.860Z,15.81
2022-08-20T14:24:11.993Z,11.12
2022-08-20T14:25:18.933Z,12.63
2022-08-20T14:26:24.994Z,8.69
2022-08-20T14:27:31.807Z,9.44
2022-08-20T14:28:35.846Z,14.94
2022-08-20T14:29:42.306Z,16.87
2022-08-20T14:30:53.327Z,14.56
2022-08-20T14:31:53.728Z,12.13
2022-08-20T14:33:01.803Z,11.81
2022-08-20T14:34:05.924Z,14.06
2022-08-20T14:35:11.022Z,10.25
2022-08-20T14:36:17.631Z,16.87
2022-08-20T14:37:26.498Z,17.87
2022-08-20T14:38:34.835Z,14.25
2022-08-20T14:39:44.872Z,14.25
2022-08-20T14:40:50.252Z,19.62
2022-08-20T14:41:55.886Z,9.63
2022-08-20T14:43:02.664Z,16.75
2022-08-20T14:44:07.846Z,19.19
2022-08-20T14:45:13.859Z,9.63
2022-08-20T14:46:20.597Z,19.25
2022-08-20T14:47:28.051Z,22.56
2022-08-20T14:48:32.023Z,21.37
2022-08-20T14:49:37.626Z,25.50
2022-08-20T14:50:42.144Z,22.33
2022-08-20T14:51:46.174Z,19.80